NCAR-RAP Real-Time Weather Data

Output produced by METARs form (21 May 2019  11:11 UTC)
found at http://weather.rap.ucar.edu/surface/
 
RJSA 211100Z 22007KT 9999 FEW020 SCT100 BKN/// 14/10 Q1003
RJSA 211000Z 19011KT 9999 FEW020 SCT100 BKN/// 14/11 Q1003
RJSA 210900Z 20010KT 170V230 9999 FEW020 BKN100 15/10 Q1002
RJSA 210800Z 20008KT 160V230 9999 FEW010 SCT030 BKN090 16/10 Q1002
RJSA 210700Z 20006KT 9999 FEW003 SCT015 BKN040 16/13 Q1002
RJSA 210600Z 21004KT 170V280 9999 -SHRA FEW003 BKN010 BKN015 14/13 Q1002
RJSA 210529Z 30007KT 8000 -SHRA FEW003 SCT005 BKN010 14/13 Q1001 RMK 1ST003 3ST005 6ST010 A2958
RJSA 210514Z 30009KT 6000 -SHRA FEW002 SCT003 BKN005 14/14 Q1001 RMK 1ST002 3ST003 6ST005 A2957
RJSA 210506Z 30010KT 7000 -SHRA FEW002 SCT005 BKN008 15/14 Q1001 RMK 1ST002 3ST005 6ST008 A2957
RJSA 210500Z 31011KT 7000 -SHRA FEW003 SCT008 BKN015 15/14 Q1001
RJSA 210450Z 29013KT 4000 -SHRA BR FEW005 SCT010 BKN015 15/13 Q1000 RMK 1ST005 3ST010 6CU015 A2955
RJSA 210400Z 22016KT 9999 -SHRA FEW015 SCT030 BKN040 19/16 Q1000
RJSA 210300Z 20013KT 9999 -SHRA FEW010 SCT030 BKN050 19/15 Q1000
RJSA 210200Z 17006KT 130V220 9999 PRFG FEW001 SCT010 BKN090 18/16 Q1000
RJSA 210148Z VRB04KT 8000 R24/P1800N PRFG -SHRA FEW001 SCT005 BKN010 18/16 Q1000 RMK 1ST001 3ST005 7ST010 A2956 1500N-E
RJSA 210121Z VRB02KT 3000 BCFG -SHRA BR SCT001 BKN002 16/15 Q1001 RMK 3ST001 7ST002 A2957
RJSA 210100Z 06003KT 3000 BCFG -SHRA BR FEW001 SCT002 BKN004 16/15 Q1001
RJSA 210020Z 05003KT 010V080 3000 BCFG -SHRA BR FEW001 SCT002 BKN010 15/15 Q1001 RMK 1ST001 4ST002 7ST010 A2956
RJSA 210000Z 07003KT 3000 SHRA BCFG BR FEW001 SCT002 BKN010 15/14 Q1001
RJSA 202338Z VRB02KT 3000 SHRA BCFG BR FEW001 SCT002 BKN006 15/14 Q1001 RMK 1ST001 4ST002 7ST006 A2957
RJSA 202310Z 07004KT 3000 SHRA BCFG BR FEW001 SCT003 BKN008 15/14 Q1001 RMK 1ST001 4ST003 7ST008 A2958
RJSA 202300Z 06004KT 3000 R24/1200VP1800U SHRA BCFG BR FEW001 SCT008 BKN030 15/14 Q1001
RJSA 202235Z 09004KT 4500 R24/P1800N PRFG -SHRA BR FEW001 SCT010 BKN040 15/14 Q1002 RMK 1ST001 3ST010 7CU040 A2959 1500N-E
RJSA 202224Z VRB02KT 5000 -SHRA BR FEW001 SCT030 BKN050 15/14 Q1002 RMK 1ST001 3CU030 7CU050 A2959
RJSA 202200Z VRB01KT 3000 SHRA BR FEW001 SCT030 BKN040 15/14 Q1002
RJSA 202140Z 36003KT 5000 -SHRA BR FEW010 SCT035 BKN050 15/14 Q1002 RMK 1ST010 3CU035 7CU050 A2960
RJSA 201200Z 16004KT 090V250 9999 FEW040 BKN/// 19/09 Q1006
RJSA 201100Z 13003KT 070V190 9999 FEW040 BKN/// 20/09 Q1007
RJSA 201000Z 18008G18KT 110V260 9999 FEW040 BKN/// 21/08 Q1008
RJSA 200900Z 19010KT 9999 FEW050 BKN/// 22/09 Q1007
RJSA 200800Z 16011KT 140V200 9999 FEW050 BKN/// 25/09 Q1007
RJSA 200700Z 17013KT 140V200 9999 FEW050 SCT/// 25/08 Q1007
RJSA 200600Z 10007KT 050V200 9999 FEW040 BKN/// 26/09 Q1007
RJSA 200500Z 05006KT 330V100 9999 FEW040 SCT/// 26/09 Q1008
RJSA 200400Z VRB05KT 9999 FEW040 SCT/// 25/09 Q1009
RJSA 200300Z 05009KT 330V070 CAVOK 24/09 Q1010
RJSA 200200Z 02005KT 290V060 CAVOK 25/08 Q1011
RJSA 200100Z VRB05KT CAVOK 25/08 Q1011
RJSA 200000Z VRB08KT CAVOK 23/06 Q1012
RJSA 192300Z 20011KT CAVOK 22/08 Q1013
RJSA 192200Z VRB01KT 9999 FEW005 SCT/// 17/10 Q1013
RJSA 192140Z VRB01KT 9999 FEW005 SCT/// 15/12 Q1013 RMK 1ST005 A2993
RJSA 191200Z VRB01KT CAVOK 12/11 Q1017
RJSA 191100Z VRB01KT CAVOK 13/11 Q1017
RJSA 191000Z VRB02KT CAVOK 14/11 Q1017
RJSA 190900Z 36003KT 320V060 9999 FEW040 BKN/// 19/12 Q1017
RJSA 190800Z 35007KT 320V020 CAVOK 20/12 Q1017
RJSA 190700Z 03008KT CAVOK 23/13 Q1017
RJSA 190600Z 05009KT 9999 FEW040 SCT060 BKN/// 23/13 Q1018
RJSA 190500Z 02007KT 330V050 9999 FEW040 SCT050 24/10 Q1018
RJSA 190400Z 05007KT 9999 FEW040 SCT050 22/13 Q1019
RJSA 190300Z 05007KT 020V090 9999 FEW040 SCT050 21/12 Q1020
RJSA 190200Z 06009KT 9999 FEW040 BKN070 20/12 Q1020
RJSA 190100Z 03006KT 350V060 9999 FEW030 SCT/// 22/12 Q1020
RJSA 190000Z 36003KT 300V090 9999 FEW001 BKN/// 20/13 Q1021